sensor_id;sensor_type;location;lat;lon;timestamp;P1;durP1;ratioP1;P2;durP2;ratioP2
12114;SDS011;6121;49.810;6.418;2023-02-28T00:00:17;74.47;;;50.90;;
12114;SDS011;6121;49.810;6.418;2023-02-28T00:02:44;103.07;;;56.85;;
12114;SDS011;6121;49.810;6.418;2023-02-28T00:05:12;79.97;;;52.50;;
12114;SDS011;6121;49.810;6.418;2023-02-28T00:07:39;91.72;;;54.10;;
12114;SDS011;6121;49.810;6.418;2023-02-28T00:10:07;78.90;;;53.03;;
12114;SDS011;6121;49.810;6.418;2023-02-28T00:12:34;103.20;;;55.30;;
12114;SDS011;6121;49.810;6.418;2023-02-28T00:15:01;94.38;;;53.15;;
12114;SDS011;6121;49.810;6.418;2023-02-28T00:17:30;87.07;;;51.85;;
12114;SDS011;6121;49.810;6.418;2023-02-28T00:19:55;83.77;;;50.37;;
12114;SDS011;6121;49.810;6.418;2023-02-28T00:22:22;98.10;;;51.45;;
12114;SDS011;6121;49.810;6.418;2023-02-28T00:24:47;101.05;;;52.65;;
12114;SDS011;6121;49.810;6.418;2023-02-28T00:27:14;76.40;;;49.47;;
12114;SDS011;6121;49.810;6.418;2023-02-28T00:29:40;100.57;;;54.53;;
12114;SDS011;6121;49.810;6.418;2023-02-28T00:32:06;84.43;;;51.70;;
12114;SDS011;6121;49.810;6.418;2023-02-28T00:34:33;81.75;;;45.67;;
12114;SDS011;6121;49.810;6.418;2023-02-28T00:37:06;116.78;;;54.95;;
12114;SDS011;6121;49.810;6.418;2023-02-28T00:39:36;78.57;;;53.33;;
12114;SDS011;6121;49.810;6.418;2023-02-28T00:42:03;107.30;;;58.15;;
12114;SDS011;6121;49.810;6.418;2023-02-28T00:44:30;70.78;;;50.53;;
12114;SDS011;6121;49.810;6.418;2023-02-28T00:46:56;102.75;;;58.15;;
12114;SDS011;6121;49.810;6.418;2023-02-28T00:49:24;75.37;;;55.17;;
12114;SDS011;6121;49.810;6.418;2023-02-28T00:51:51;95.88;;;55.88;;
12114;SDS011;6121;49.810;6.418;2023-02-28T00:54:18;82.18;;;56.58;;
12114;SDS011;6121;49.810;6.418;2023-02-28T00:56:46;88.50;;;57.33;;
12114;SDS011;6121;49.810;6.418;2023-02-28T00:59:13;77.50;;;54.92;;
12114;SDS011;6121;49.810;6.418;2023-02-28T01:01:41;84.82;;;55.80;;
12114;SDS011;6121;49.810;6.418;2023-02-28T01:04:07;102.50;;;57.97;;
12114;SDS011;6121;49.810;6.418;2023-02-28T01:06:34;74.43;;;55.70;;
12114;SDS011;6121;49.810;6.418;2023-02-28T01:09:01;95.03;;;58.53;;
12114;SDS011;6121;49.810;6.418;2023-02-28T01:11:28;87.05;;;56.28;;
12114;SDS011;6121;49.810;6.418;2023-02-28T01:13:54;88.40;;;57.38;;
12114;SDS011;6121;49.810;6.418;2023-02-28T01:16:19;77.00;;;59.73;;
12114;SDS011;6121;49.810;6.418;2023-02-28T01:18:45;104.80;;;62.97;;
12114;SDS011;6121;49.810;6.418;2023-02-28T01:21:12;104.13;;;63.87;;
12114;SDS011;6121;49.810;6.418;2023-02-28T01:23:43;93.63;;;60.05;;
12114;SDS011;6121;49.810;6.418;2023-02-28T01:26:10;87.55;;;58.85;;
12114;SDS011;6121;49.810;6.418;2023-02-28T01:28:48;93.60;;;61.22;;
12114;SDS011;6121;49.810;6.418;2023-02-28T01:31:14;80.78;;;56.85;;
12114;SDS011;6121;49.810;6.418;2023-02-28T01:33:41;98.35;;;59.72;;
12114;SDS011;6121;49.810;6.418;2023-02-28T01:36:09;101.05;;;57.67;;
12114;SDS011;6121;49.810;6.418;2023-02-28T01:38:38;90.82;;;57.78;;
12114;SDS011;6121;49.810;6.418;2023-02-28T01:41:04;94.88;;;58.25;;
12114;SDS011;6121;49.810;6.418;2023-02-28T01:46:11;96.60;;;58.65;;
12114;SDS011;6121;49.810;6.418;2023-02-28T01:48:48;71.60;;;56.13;;
12114;SDS011;6121;49.810;6.418;2023-02-28T01:51:24;90.35;;;57.92;;
12114;SDS011;6121;49.810;6.418;2023-02-28T01:53:57;88.17;;;56.33;;
12114;SDS011;6121;49.810;6.418;2023-02-28T01:56:29;86.53;;;57.60;;
12114;SDS011;6121;49.810;6.418;2023-02-28T01:58:58;84.90;;;54.58;;
12114;SDS011;6121;49.810;6.418;2023-02-28T02:01:24;80.80;;;58.60;;
12114;SDS011;6121;49.810;6.418;2023-02-28T02:03:53;81.95;;;59.20;;
12114;SDS011;6121;49.810;6.418;2023-02-28T02:06:22;89.50;;;56.33;;
12114;SDS011;6121;49.810;6.418;2023-02-28T02:08:59;110.95;;;61.80;;
12114;SDS011;6121;49.810;6.418;2023-02-28T02:11:24;82.13;;;59.07;;
12114;SDS011;6121;49.810;6.418;2023-02-28T02:36:55;94.93;;;68.43;;
12114;SDS011;6121;49.810;6.418;2023-02-28T02:42:29;89.97;;;70.43;;
12114;SDS011;6121;49.810;6.418;2023-02-28T02:45:06;98.03;;;70.38;;
12114;SDS011;6121;49.810;6.418;2023-02-28T02:47:37;81.43;;;65.38;;
12114;SDS011;6121;49.810;6.418;2023-02-28T02:50:05;99.60;;;73.93;;
12114;SDS011;6121;49.810;6.418;2023-02-28T02:52:41;82.18;;;67.65;;
12114;SDS011;6121;49.810;6.418;2023-02-28T02:55:09;95.90;;;71.65;;
12114;SDS011;6121;49.810;6.418;2023-02-28T02:57:59;86.30;;;66.50;;
12114;SDS011;6121;49.810;6.418;2023-02-28T03:00:29;86.75;;;69.63;;
12114;SDS011;6121;49.810;6.418;2023-02-28T03:02:58;100.07;;;65.57;;
12114;SDS011;6121;49.810;6.418;2023-02-28T03:05:28;94.53;;;67.22;;
12114;SDS011;6121;49.810;6.418;2023-02-28T03:08:11;115.38;;;73.80;;
12114;SDS011;6121;49.810;6.418;2023-02-28T03:10:38;82.60;;;63.08;;
12114;SDS011;6121;49.810;6.418;2023-02-28T03:13:16;85.70;;;66.60;;
12114;SDS011;6121;49.810;6.418;2023-02-28T03:15:52;94.53;;;60.75;;
12114;SDS011;6121;49.810;6.418;2023-02-28T03:18:54;87.50;;;72.07;;
12114;SDS011;6121;49.810;6.418;2023-02-28T03:21:40;100.50;;;76.20;;
12114;SDS011;6121;49.810;6.418;2023-02-28T03:24:16;114.57;;;78.13;;
12114;SDS011;6121;49.810;6.418;2023-02-28T03:26:51;102.40;;;67.43;;
12114;SDS011;6121;49.810;6.418;2023-02-28T03:29:35;85.88;;;71.38;;
12114;SDS011;6121;49.810;6.418;2023-02-28T03:32:14;128.85;;;80.15;;
12114;SDS011;6121;49.810;6.418;2023-02-28T03:35:09;98.38;;;73.75;;
12114;SDS011;6121;49.810;6.418;2023-02-28T03:37:33;86.25;;;76.75;;
12114;SDS011;6121;49.810;6.418;2023-02-28T03:40:12;119.82;;;80.95;;
12114;SDS011;6121;49.810;6.418;2023-02-28T03:42:41;87.90;;;77.30;;
12114;SDS011;6121;49.810;6.418;2023-02-28T03:45:16;119.10;;;83.25;;
12114;SDS011;6121;49.810;6.418;2023-02-28T03:47:51;91.28;;;75.13;;
12114;SDS011;6121;49.810;6.418;2023-02-28T03:50:21;107.28;;;81.35;;
12114;SDS011;6121;49.810;6.418;2023-02-28T03:53:01;109.37;;;79.17;;
12114;SDS011;6121;49.810;6.418;2023-02-28T03:55:34;94.28;;;80.85;;
12114;SDS011;6121;49.810;6.418;2023-02-28T03:58:11;126.32;;;88.95;;
12114;SDS011;6121;49.810;6.418;2023-02-28T04:00:48;102.57;;;85.07;;
12114;SDS011;6121;49.810;6.418;2023-02-28T04:03:19;115.30;;;88.32;;
12114;SDS011;6121;49.810;6.418;2023-02-28T04:05:50;96.72;;;77.25;;
12114;SDS011;6121;49.810;6.418;2023-02-28T04:08:20;121.07;;;86.50;;
12114;SDS011;6121;49.810;6.418;2023-02-28T04:10:48;94.68;;;80.85;;
12114;SDS011;6121;49.810;6.418;2023-02-28T04:13:23;99.57;;;84.45;;
12114;SDS011;6121;49.810;6.418;2023-02-28T04:15:49;106.03;;;88.50;;
12114;SDS011;6121;49.810;6.418;2023-02-28T04:18:15;136.15;;;93.68;;
12114;SDS011;6121;49.810;6.418;2023-02-28T04:20:41;97.85;;;87.47;;
12114;SDS011;6121;49.810;6.418;2023-02-28T04:23:07;119.30;;;93.33;;
12114;SDS011;6121;49.810;6.418;2023-02-28T04:25:32;106.15;;;94.28;;
12114;SDS011;6121;49.810;6.418;2023-02-28T04:27:58;122.97;;;99.57;;
12114;SDS011;6121;49.810;6.418;2023-02-28T04:30:24;117.80;;;97.73;;
12114;SDS011;6121;49.810;6.418;2023-02-28T04:32:50;115.43;;;100.03;;
12114;SDS011;6121;49.810;6.418;2023-02-28T04:35:16;138.70;;;108.30;;
12114;SDS011;6121;49.810;6.418;2023-02-28T04:37:42;121.10;;;110.50;;
12114;SDS011;6121;49.810;6.418;2023-02-28T04:40:08;162.50;;;147.45;;
12114;SDS011;6121;49.810;6.418;2023-02-28T04:42:34;122.93;;;110.38;;
12114;SDS011;6121;49.810;6.418;2023-02-28T04:45:04;142.18;;;117.93;;
12114;SDS011;6121;49.810;6.418;2023-02-28T04:47:30;173.75;;;158.80;;
12114;SDS011;6121;49.810;6.418;2023-02-28T04:49:56;179.15;;;164.10;;
12114;SDS011;6121;49.810;6.418;2023-02-28T04:52:22;187.60;;;170.20;;
12114;SDS011;6121;49.810;6.418;2023-02-28T04:54:48;187.55;;;172.77;;
12114;SDS011;6121;49.810;6.418;2023-02-28T04:57:14;221.27;;;202.40;;
12114;SDS011;6121;49.810;6.418;2023-02-28T04:59:40;232.52;;;214.98;;
12114;SDS011;6121;49.810;6.418;2023-02-28T05:02:05;254.07;;;231.23;;
12114;SDS011;6121;49.810;6.418;2023-02-28T05:04:32;261.20;;;240.93;;
12114;SDS011;6121;49.810;6.418;2023-02-28T05:06:59;306.17;;;281.38;;
12114;SDS011;6121;49.810;6.418;2023-02-28T05:09:26;356.58;;;327.73;;
12114;SDS011;6121;49.810;6.418;2023-02-28T05:11:53;70.43;;;12.17;;
12114;SDS011;6121;49.810;6.418;2023-02-28T05:14:19;71.68;;;12.35;;
12114;SDS011;6121;49.810;6.418;2023-02-28T05:16:45;65.57;;;11.13;;
12114;SDS011;6121;49.810;6.418;2023-02-28T05:19:12;78.95;;;12.55;;
12114;SDS011;6121;49.810;6.418;2023-02-28T05:21:38;53.10;;;9.32;;
12114;SDS011;6121;49.810;6.418;2023-02-28T05:24:08;86.53;;;13.93;;
12114;SDS011;6121;49.810;6.418;2023-02-28T05:26:36;48.05;;;9.05;;
12114;SDS011;6121;49.810;6.418;2023-02-28T05:29:04;89.75;;;14.15;;
12114;SDS011;6121;49.810;6.418;2023-02-28T05:31:30;56.08;;;10.25;;
12114;SDS011;6121;49.810;6.418;2023-02-28T05:33:56;82.07;;;13.65;;
12114;SDS011;6121;49.810;6.418;2023-02-28T05:36:23;81.43;;;13.40;;
12114;SDS011;6121;49.810;6.418;2023-02-28T05:38:50;44.47;;;8.57;;
12114;SDS011;6121;49.810;6.418;2023-02-28T05:41:17;58.78;;;10.48;;
12114;SDS011;6121;49.810;6.418;2023-02-28T05:43:45;42.53;;;8.30;;
12114;SDS011;6121;49.810;6.418;2023-02-28T05:46:11;111.25;;;17.52;;
12114;SDS011;6121;49.810;6.418;2023-02-28T05:48:38;49.75;;;9.70;;
12114;SDS011;6121;49.810;6.418;2023-02-28T05:51:05;81.83;;;13.93;;
12114;SDS011;6121;49.810;6.418;2023-02-28T05:53:32;50.17;;;9.70;;
12114;SDS011;6121;49.810;6.418;2023-02-28T05:55:58;87.53;;;15.05;;
12114;SDS011;6121;49.810;6.418;2023-02-28T05:58:24;79.63;;;14.18;;
12114;SDS011;6121;49.810;6.418;2023-02-28T06:00:54;59.58;;;11.52;;
12114;SDS011;6121;49.810;6.418;2023-02-28T06:03:20;75.53;;;13.73;;
12114;SDS011;6121;49.810;6.418;2023-02-28T06:05:46;57.20;;;11.53;;
12114;SDS011;6121;49.810;6.418;2023-02-28T06:08:12;89.63;;;15.43;;
12114;SDS011;6121;49.810;6.418;2023-02-28T06:10:38;67.72;;;12.50;;
12114;SDS011;6121;49.810;6.418;2023-02-28T06:13:04;68.43;;;12.93;;
12114;SDS011;6121;49.810;6.418;2023-02-28T06:15:30;76.72;;;13.75;;
12114;SDS011;6121;49.810;6.418;2023-02-28T06:17:58;93.82;;;16.13;;
12114;SDS011;6121;49.810;6.418;2023-02-28T06:20:24;66.22;;;12.73;;
12114;SDS011;6121;49.810;6.418;2023-02-28T06:22:56;88.30;;;16.08;;
12114;SDS011;6121;49.810;6.418;2023-02-28T06:25:24;89.20;;;15.85;;
12114;SDS011;6121;49.810;6.418;2023-02-28T06:27:51;55.83;;;11.70;;
12114;SDS011;6121;49.810;6.418;2023-02-28T06:30:18;84.57;;;15.95;;
12114;SDS011;6121;49.810;6.418;2023-02-28T06:32:52;49.63;;;10.63;;
12114;SDS011;6121;49.810;6.418;2023-02-28T06:35:18;91.07;;;16.33;;
12114;SDS011;6121;49.810;6.418;2023-02-28T06:37:44;55.25;;;11.63;;
12114;SDS011;6121;49.810;6.418;2023-02-28T06:40:10;82.20;;;16.13;;
12114;SDS011;6121;49.810;6.418;2023-02-28T06:42:39;61.25;;;13.02;;
12114;SDS011;6121;49.810;6.418;2023-02-28T06:45:06;102.13;;;19.45;;
12114;SDS011;6121;49.810;6.418;2023-02-28T06:47:34;61.35;;;14.77;;
12114;SDS011;6121;49.810;6.418;2023-02-28T06:50:01;72.90;;;15.13;;
12114;SDS011;6121;49.810;6.418;2023-02-28T06:52:28;94.30;;;18.58;;
12114;SDS011;6121;49.810;6.418;2023-02-28T06:54:54;87.10;;;17.70;;
12114;SDS011;6121;49.810;6.418;2023-02-28T06:57:26;82.82;;;19.60;;
12114;SDS011;6121;49.810;6.418;2023-02-28T06:59:55;67.45;;;19.33;;
12114;SDS011;6121;49.810;6.418;2023-02-28T07:02:22;116.70;;;26.48;;
12114;SDS011;6121;49.810;6.418;2023-02-28T07:04:48;105.40;;;27.20;;
12114;SDS011;6121;49.810;6.418;2023-02-28T07:07:14;82.28;;;26.67;;
12114;SDS011;6121;49.810;6.418;2023-02-28T07:09:40;70.47;;;29.80;;
12114;SDS011;6121;49.810;6.418;2023-02-28T07:12:05;84.55;;;34.53;;
12114;SDS011;6121;49.810;6.418;2023-02-28T07:14:31;100.35;;;44.28;;
12114;SDS011;6121;49.810;6.418;2023-02-28T07:16:57;91.40;;;46.30;;
12114;SDS011;6121;49.810;6.418;2023-02-28T07:19:23;101.13;;;58.35;;
12114;SDS011;6121;49.810;6.418;2023-02-28T07:21:49;87.83;;;61.23;;
12114;SDS011;6121;49.810;6.418;2023-02-28T07:24:14;122.68;;;79.68;;
12114;SDS011;6121;49.810;6.418;2023-02-28T07:26:43;98.65;;;89.68;;
12114;SDS011;6121;49.810;6.418;2023-02-28T07:29:09;129.32;;;115.85;;
12114;SDS011;6121;49.810;6.418;2023-02-28T07:31:35;130.43;;;118.65;;
12114;SDS011;6121;49.810;6.418;2023-02-28T07:34:01;154.00;;;140.60;;
12114;SDS011;6121;49.810;6.418;2023-02-28T07:36:28;187.30;;;171.75;;
12114;SDS011;6121;49.810;6.418;2023-02-28T07:38:54;224.93;;;208.18;;
12114;SDS011;6121;49.810;6.418;2023-02-28T07:41:20;278.40;;;258.55;;
12114;SDS011;6121;49.810;6.418;2023-02-28T07:43:47;541.08;;;507.33;;
12114;SDS011;6121;49.810;6.418;2023-02-28T07:46:14;894.20;;;833.03;;
12114;SDS011;6121;49.810;6.418;2023-02-28T07:48:41;859.78;;;796.75;;
12114;SDS011;6121;49.810;6.418;2023-02-28T07:51:07;885.70;;;821.15;;
12114;SDS011;6121;49.810;6.418;2023-02-28T07:53:33;876.70;;;815.13;;
12114;SDS011;6121;49.810;6.418;2023-02-28T07:56:00;665.13;;;608.97;;
12114;SDS011;6121;49.810;6.418;2023-02-28T07:58:28;944.88;;;876.20;;
12114;SDS011;6121;49.810;6.418;2023-02-28T08:00:54;900.88;;;840.20;;
12114;SDS011;6121;49.810;6.418;2023-02-28T08:03:21;866.50;;;801.67;;
12114;SDS011;6121;49.810;6.418;2023-02-28T08:05:48;882.77;;;819.53;;
12114;SDS011;6121;49.810;6.418;2023-02-28T08:08:14;863.05;;;798.28;;
12114;SDS011;6121;49.810;6.418;2023-02-28T08:10:41;870.25;;;810.45;;
12114;SDS011;6121;49.810;6.418;2023-02-28T08:13:07;886.38;;;820.85;;
12114;SDS011;6121;49.810;6.418;2023-02-28T08:15:33;891.42;;;827.08;;
12114;SDS011;6121;49.810;6.418;2023-02-28T08:17:59;801.30;;;743.03;;
12114;SDS011;6121;49.810;6.418;2023-02-28T08:20:25;726.63;;;670.20;;
12114;SDS011;6121;49.810;6.418;2023-02-28T08:22:52;827.25;;;768.50;;
12114;SDS011;6121;49.810;6.418;2023-02-28T08:25:18;778.20;;;713.05;;
12114;SDS011;6121;49.810;6.418;2023-02-28T08:27:44;758.80;;;701.45;;
12114;SDS011;6121;49.810;6.418;2023-02-28T08:30:11;781.05;;;718.17;;
12114;SDS011;6121;49.810;6.418;2023-02-28T08:32:38;575.30;;;521.10;;
12114;SDS011;6121;49.810;6.418;2023-02-28T08:35:04;596.97;;;540.25;;
12114;SDS011;6121;49.810;6.418;2023-02-28T08:37:31;593.85;;;537.10;;
12114;SDS011;6121;49.810;6.418;2023-02-28T08:39:57;611.25;;;560.55;;
12114;SDS011;6121;49.810;6.418;2023-02-28T08:42:23;755.63;;;691.67;;
12114;SDS011;6121;49.810;6.418;2023-02-28T08:44:49;736.10;;;675.17;;
12114;SDS011;6121;49.810;6.418;2023-02-28T08:47:15;744.35;;;682.88;;
12114;SDS011;6121;49.810;6.418;2023-02-28T08:49:41;725.35;;;668.53;;
12114;SDS011;6121;49.810;6.418;2023-02-28T08:52:07;715.23;;;657.17;;
12114;SDS011;6121;49.810;6.418;2023-02-28T08:54:33;749.10;;;687.50;;
12114;SDS011;6121;49.810;6.418;2023-02-28T08:56:59;689.03;;;632.75;;
12114;SDS011;6121;49.810;6.418;2023-02-28T08:59:25;616.50;;;559.58;;
12114;SDS011;6121;49.810;6.418;2023-02-28T09:01:51;683.13;;;626.37;;
12114;SDS011;6121;49.810;6.418;2023-02-28T09:04:17;716.40;;;656.53;;
12114;SDS011;6121;49.810;6.418;2023-02-28T09:06:42;705.10;;;649.27;;
12114;SDS011;6121;49.810;6.418;2023-02-28T09:09:09;714.17;;;656.78;;
12114;SDS011;6121;49.810;6.418;2023-02-28T09:11:35;700.88;;;642.13;;
12114;SDS011;6121;49.810;6.418;2023-02-28T09:14:02;725.13;;;661.95;;
12114;SDS011;6121;49.810;6.418;2023-02-28T09:16:31;740.63;;;678.60;;
12114;SDS011;6121;49.810;6.418;2023-02-28T09:18:57;654.45;;;593.67;;
12114;SDS011;6121;49.810;6.418;2023-02-28T09:21:23;613.08;;;551.33;;
12114;SDS011;6121;49.810;6.418;2023-02-28T09:23:50;611.87;;;550.77;;
12114;SDS011;6121;49.810;6.418;2023-02-28T09:26:17;591.47;;;529.70;;
12114;SDS011;6121;49.810;6.418;2023-02-28T09:28:44;598.72;;;537.50;;
12114;SDS011;6121;49.810;6.418;2023-02-28T09:31:14;579.35;;;515.97;;
12114;SDS011;6121;49.810;6.418;2023-02-28T09:33:46;579.38;;;523.15;;
12114;SDS011;6121;49.810;6.418;2023-02-28T09:36:13;585.17;;;521.40;;
12114;SDS011;6121;49.810;6.418;2023-02-28T09:38:39;573.65;;;514.30;;
12114;SDS011;6121;49.810;6.418;2023-02-28T09:41:15;605.42;;;547.00;;
12114;SDS011;6121;49.810;6.418;2023-02-28T09:43:45;611.00;;;551.90;;
12114;SDS011;6121;49.810;6.418;2023-02-28T09:49:06;565.07;;;507.10;;
12114;SDS011;6121;49.810;6.418;2023-02-28T09:54:13;525.30;;;330.00;;
12114;SDS011;6121;49.810;6.418;2023-02-28T09:56:45;250.77;;;226.95;;
12114;SDS011;6121;49.810;6.418;2023-02-28T10:04:59;533.60;;;475.10;;
12114;SDS011;6121;49.810;6.418;2023-02-28T10:07:46;582.50;;;519.25;;
12114;SDS011;6121;49.810;6.418;2023-02-28T10:10:43;494.63;;;455.52;;
12114;SDS011;6121;49.810;6.418;2023-02-28T10:16:06;551.37;;;391.93;;
12114;SDS011;6121;49.810;6.418;2023-02-28T10:18:41;548.28;;;488.23;;
12114;SDS011;6121;49.810;6.418;2023-02-28T10:21:17;525.57;;;407.83;;
12114;SDS011;6121;49.810;6.418;2023-02-28T10:24:11;562.60;;;499.45;;
12114;SDS011;6121;49.810;6.418;2023-02-28T10:26:39;588.03;;;525.90;;
12114;SDS011;6121;49.810;6.418;2023-02-28T10:29:08;492.80;;;362.17;;
12114;SDS011;6121;49.810;6.418;2023-02-28T10:31:35;532.00;;;389.65;;
12114;SDS011;6121;49.810;6.418;2023-02-28T10:34:01;504.98;;;344.02;;
12114;SDS011;6121;49.810;6.418;2023-02-28T10:36:28;532.42;;;374.52;;
12114;SDS011;6121;49.810;6.418;2023-02-28T10:38:54;512.42;;;408.17;;
12114;SDS011;6121;49.810;6.418;2023-02-28T10:41:28;531.30;;;457.00;;
12114;SDS011;6121;49.810;6.418;2023-02-28T10:44:12;552.83;;;370.67;;
12114;SDS011;6121;49.810;6.418;2023-02-28T10:46:39;499.80;;;364.05;;
12114;SDS011;6121;49.810;6.418;2023-02-28T10:49:12;488.73;;;359.13;;
12114;SDS011;6121;49.810;6.418;2023-02-28T10:51:40;516.40;;;410.50;;
12114;SDS011;6121;49.810;6.418;2023-02-28T10:54:16;536.47;;;396.52;;
12114;SDS011;6121;49.810;6.418;2023-02-28T10:59:40;490.70;;;321.88;;
12114;SDS011;6121;49.810;6.418;2023-02-28T11:05:28;506.10;;;276.20;;
12114;SDS011;6121;49.810;6.418;2023-02-28T11:08:12;459.73;;;261.02;;
12114;SDS011;6121;49.810;6.418;2023-02-28T11:10:44;482.17;;;264.90;;
12114;SDS011;6121;49.810;6.418;2023-02-28T11:13:16;547.67;;;274.90;;
12114;SDS011;6121;49.810;6.418;2023-02-28T11:15:49;510.30;;;306.05;;
12114;SDS011;6121;49.810;6.418;2023-02-28T11:18:24;492.55;;;302.13;;
12114;SDS011;6121;49.810;6.418;2023-02-28T11:21:08;496.45;;;262.75;;
12114;SDS011;6121;49.810;6.418;2023-02-28T11:23:36;493.27;;;256.50;;
12114;SDS011;6121;49.810;6.418;2023-02-28T11:26:06;504.20;;;268.00;;
12114;SDS011;6121;49.810;6.418;2023-02-28T11:28:37;473.25;;;255.70;;
12114;SDS011;6121;49.810;6.418;2023-02-28T11:31:05;480.00;;;274.38;;
12114;SDS011;6121;49.810;6.418;2023-02-28T11:33:50;518.03;;;318.55;;
12114;SDS011;6121;49.810;6.418;2023-02-28T11:38:48;464.48;;;252.82;;
12114;SDS011;6121;49.810;6.418;2023-02-28T11:41:18;485.30;;;266.80;;
12114;SDS011;6121;49.810;6.418;2023-02-28T11:46:49;225.27;;;191.88;;
12114;SDS011;6121;49.810;6.418;2023-02-28T11:49:25;220.20;;;197.30;;
12114;SDS011;6121;49.810;6.418;2023-02-28T11:52:20;225.95;;;166.30;;
12114;SDS011;6121;49.810;6.418;2023-02-28T12:00:03;166.50;;;148.70;;
12114;SDS011;6121;49.810;6.418;2023-02-28T12:08:27;167.18;;;142.70;;
12114;SDS011;6121;49.810;6.418;2023-02-28T12:22:29;226.27;;;108.32;;
12114;SDS011;6121;49.810;6.418;2023-02-28T12:25:20;190.32;;;95.50;;
12114;SDS011;6121;49.810;6.418;2023-02-28T12:27:44;182.55;;;93.95;;
12114;SDS011;6121;49.810;6.418;2023-02-28T12:30:22;160.75;;;104.22;;
12114;SDS011;6121;49.810;6.418;2023-02-28T12:33:02;227.95;;;123.95;;
12114;SDS011;6121;49.810;6.418;2023-02-28T12:35:42;204.27;;;108.45;;
12114;SDS011;6121;49.810;6.418;2023-02-28T12:38:16;182.43;;;94.05;;
12114;SDS011;6121;49.810;6.418;2023-02-28T12:41:02;145.27;;;98.90;;
12114;SDS011;6121;49.810;6.418;2023-02-28T12:43:34;222.68;;;113.68;;
12114;SDS011;6121;49.810;6.418;2023-02-28T12:46:11;193.55;;;104.75;;
12114;SDS011;6121;49.810;6.418;2023-02-28T12:48:52;176.80;;;93.15;;
12114;SDS011;6121;49.810;6.418;2023-02-28T12:51:21;172.13;;;92.70;;
12114;SDS011;6121;49.810;6.418;2023-02-28T12:53:53;199.02;;;97.93;;
12114;SDS011;6121;49.810;6.418;2023-02-28T12:56:47;167.68;;;86.03;;
12114;SDS011;6121;49.810;6.418;2023-02-28T12:59:25;152.83;;;81.50;;
12114;SDS011;6121;49.810;6.418;2023-02-28T13:04:46;197.73;;;93.07;;
12114;SDS011;6121;49.810;6.418;2023-02-28T13:10:20;164.65;;;83.18;;
12114;SDS011;6121;49.810;6.418;2023-02-28T13:12:50;204.07;;;88.18;;
12114;SDS011;6121;49.810;6.418;2023-02-28T13:15:24;201.27;;;87.60;;
12114;SDS011;6121;49.810;6.418;2023-02-28T13:17:55;140.15;;;64.38;;
12114;SDS011;6121;49.810;6.418;2023-02-28T13:20:24;165.25;;;73.65;;
12114;SDS011;6121;49.810;6.418;2023-02-28T13:22:52;230.20;;;87.65;;
12114;SDS011;6121;49.810;6.418;2023-02-28T13:28:13;150.93;;;82.53;;
12114;SDS011;6121;49.810;6.418;2023-02-28T13:31:13;131.90;;;78.43;;
12114;SDS011;6121;49.810;6.418;2023-02-28T13:36:26;159.35;;;82.05;;
12114;SDS011;6121;49.810;6.418;2023-02-28T13:48:05;162.30;;;78.88;;
12114;SDS011;6121;49.810;6.418;2023-02-28T13:50:49;176.43;;;75.32;;
12114;SDS011;6121;49.810;6.418;2023-02-28T13:55:53;187.70;;;84.20;;
12114;SDS011;6121;49.810;6.418;2023-02-28T14:07:07;143.18;;;80.45;;
12114;SDS011;6121;49.810;6.418;2023-02-28T14:09:38;164.35;;;73.78;;
12114;SDS011;6121;49.810;6.418;2023-02-28T14:15:40;212.30;;;87.50;;
12114;SDS011;6121;49.810;6.418;2023-02-28T14:20:42;166.80;;;86.50;;
12114;SDS011;6121;49.810;6.418;2023-02-28T14:23:29;208.73;;;92.72;;
12114;SDS011;6121;49.810;6.418;2023-02-28T14:31:44;180.68;;;77.75;;
12114;SDS011;6121;49.810;6.418;2023-02-28T14:37:03;137.80;;;80.18;;
12114;SDS011;6121;49.810;6.418;2023-02-28T14:39:30;167.88;;;90.20;;
12114;SDS011;6121;49.810;6.418;2023-02-28T14:41:58;161.32;;;88.70;;
12114;SDS011;6121;49.810;6.418;2023-02-28T14:44:30;183.60;;;94.63;;
12114;SDS011;6121;49.810;6.418;2023-02-28T14:46:57;156.35;;;77.10;;
12114;SDS011;6121;49.810;6.418;2023-02-28T14:52:10;142.63;;;82.73;;
12114;SDS011;6121;49.810;6.418;2023-02-28T14:54:54;185.57;;;87.60;;
12114;SDS011;6121;49.810;6.418;2023-02-28T14:57:26;160.63;;;86.80;;
12114;SDS011;6121;49.810;6.418;2023-02-28T15:00:27;192.07;;;97.10;;
12114;SDS011;6121;49.810;6.418;2023-02-28T15:02:50;227.27;;;107.57;;
12114;SDS011;6121;49.810;6.418;2023-02-28T15:05:33;190.10;;;101.15;;
12114;SDS011;6121;49.810;6.418;2023-02-28T15:10:37;177.30;;;95.50;;
12114;SDS011;6121;49.810;6.418;2023-02-28T15:13:06;221.68;;;109.95;;
12114;SDS011;6121;49.810;6.418;2023-02-28T15:18:07;150.02;;;85.68;;
12114;SDS011;6121;49.810;6.418;2023-02-28T15:20:56;146.10;;;92.50;;
12114;SDS011;6121;49.810;6.418;2023-02-28T15:23:27;228.17;;;102.17;;
12114;SDS011;6121;49.810;6.418;2023-02-28T15:25:54;177.88;;;95.35;;
12114;SDS011;6121;49.810;6.418;2023-02-28T15:28:20;162.85;;;95.03;;
12114;SDS011;6121;49.810;6.418;2023-02-28T15:30:52;197.02;;;103.30;;
12114;SDS011;6121;49.810;6.418;2023-02-28T15:33:22;206.70;;;105.18;;
12114;SDS011;6121;49.810;6.418;2023-02-28T15:35:50;228.07;;;109.47;;
12114;SDS011;6121;49.810;6.418;2023-02-28T15:38:24;187.90;;;103.85;;
12114;SDS011;6121;49.810;6.418;2023-02-28T15:40:55;190.95;;;98.18;;
12114;SDS011;6121;49.810;6.418;2023-02-28T15:43:24;219.15;;;96.63;;
12114;SDS011;6121;49.810;6.418;2023-02-28T15:48:29;174.27;;;107.47;;
12114;SDS011;6121;49.810;6.418;2023-02-28T15:51:02;157.20;;;103.60;;
12114;SDS011;6121;49.810;6.418;2023-02-28T15:56:29;130.68;;;87.72;;
12114;SDS011;6121;49.810;6.418;2023-02-28T15:59:23;137.02;;;86.45;;
12114;SDS011;6121;49.810;6.418;2023-02-28T16:04:34;141.38;;;80.72;;
12114;SDS011;6121;49.810;6.418;2023-02-28T16:07:05;153.95;;;84.47;;
12114;SDS011;6121;49.810;6.418;2023-02-28T16:09:37;148.50;;;86.20;;
12114;SDS011;6121;49.810;6.418;2023-02-28T16:12:03;137.00;;;85.50;;
12114;SDS011;6121;49.810;6.418;2023-02-28T16:14:30;125.55;;;82.60;;
12114;SDS011;6121;49.810;6.418;2023-02-28T16:16:57;166.55;;;85.13;;
12114;SDS011;6121;49.810;6.418;2023-02-28T16:19:29;133.55;;;81.57;;
12114;SDS011;6121;49.810;6.418;2023-02-28T16:21:56;148.77;;;82.82;;
12114;SDS011;6121;49.810;6.418;2023-02-28T16:24:22;123.53;;;81.55;;
12114;SDS011;6121;49.810;6.418;2023-02-28T16:26:48;137.82;;;88.38;;
12114;SDS011;6121;49.810;6.418;2023-02-28T16:29:38;130.13;;;82.90;;
12114;SDS011;6121;49.810;6.418;2023-02-28T16:32:06;131.63;;;84.22;;
12114;SDS011;6121;49.810;6.418;2023-02-28T16:34:33;127.32;;;77.50;;
12114;SDS011;6121;49.810;6.418;2023-02-28T16:36:59;128.23;;;77.90;;
12114;SDS011;6121;49.810;6.418;2023-02-28T16:39:25;126.63;;;83.35;;
12114;SDS011;6121;49.810;6.418;2023-02-28T16:41:51;131.20;;;88.87;;
12114;SDS011;6121;49.810;6.418;2023-02-28T16:44:27;128.60;;;94.10;;
12114;SDS011;6121;49.810;6.418;2023-02-28T16:46:55;135.52;;;97.57;;
12114;SDS011;6121;49.810;6.418;2023-02-28T16:49:24;122.47;;;91.07;;
12114;SDS011;6121;49.810;6.418;2023-02-28T16:51:50;134.63;;;90.03;;
12114;SDS011;6121;49.810;6.418;2023-02-28T16:54:16;124.00;;;87.32;;
12114;SDS011;6121;49.810;6.418;2023-02-28T16:56:43;140.15;;;86.20;;